EJU4916 EGHI-LFPO
Flight info
| Callsign | EJU4916 |
|---|---|
| Flight time | 0h 53m |
| Altitude | 27000 |
| Route | GWC UN859 DVL A34 BOBSA |
| Aircraft | A320/M-SDE3FGHIRWY/LB1 |
Departure
| Time | 2026-05-09 15:50 |
|---|---|
| Airport | Southampton Airport (EGHI) |
Arrival
| Time | 2026-05-09 16:43 |
|---|---|
| Airport | Paris-Orly Airport (LFPO) |
| Time | Latitude | Longitude | Altitude | Speed | Heading |
|---|---|---|---|---|---|
| 2026-05-09 15:28 | 50.94959 | -1.36057 | 39 ft | 0 kts | 19° |
| 2026-05-09 15:43 | 50.94954 | -1.36059 | 39 ft | 2 kts | 19° |
| 2026-05-09 15:43 | 50.94936 | -1.36069 | 37 ft | 3 kts | 19° |
| 2026-05-09 15:44 | 50.94918 | -1.36079 | 38 ft | 3 kts | 32° |
| 2026-05-09 15:44 | 50.94910 | -1.36089 | 38 ft | 3 kts | 70° |
| 2026-05-09 15:44 | 50.94908 | -1.36111 | 38 ft | 1 kts | 109° |
| 2026-05-09 15:44 | 50.94912 | -1.36128 | 39 ft | 4 kts | 109° |
| 2026-05-09 15:46 | 50.94910 | -1.36121 | 39 ft | 4 kts | 109° |
| 2026-05-09 15:46 | 50.94882 | -1.36039 | 39 ft | 10 kts | 148° |
| 2026-05-09 15:47 | 50.94821 | -1.36051 | 37 ft | 9 kts | 200° |
| 2026-05-09 15:47 | 50.94738 | -1.36097 | 39 ft | 14 kts | 199° |
| 2026-05-09 15:47 | 50.94651 | -1.36139 | 39 ft | 12 kts | 180° |
| 2026-05-09 15:47 | 50.94586 | -1.36074 | 39 ft | 11 kts | 117° |
| 2026-05-09 15:48 | 50.94558 | -1.35971 | 38 ft | 10 kts | 127° |
| 2026-05-09 15:48 | 50.94499 | -1.35973 | 37 ft | 8 kts | 200° |
| 2026-05-09 15:48 | 50.94411 | -1.36023 | 37 ft | 20 kts | 199° |
| 2026-05-09 15:48 | 50.94308 | -1.36042 | 38 ft | 9 kts | 204° |
| 2026-05-09 15:49 | 50.94330 | -1.36067 | 35 ft | 1 kts | 23° |
| 2026-05-09 15:49 | 50.94331 | -1.36067 | 35 ft | 0 kts | 19° |
| 2026-05-09 15:50 | 50.94606 | -1.35914 | 39 ft | 87 kts | 19° |
| 2026-05-09 15:50 | 50.95431 | -1.35453 | 63 ft | 157 kts | 19° |
| 2026-05-09 15:50 | 50.96486 | -1.34862 | 885 ft | 163 kts | 22° |
| 2026-05-09 15:50 | 50.97569 | -1.34253 | 1717 ft | 168 kts | 23° |
| 2026-05-09 15:51 | 50.98735 | -1.33587 | 2120 ft | 188 kts | 19° |
| 2026-05-09 15:51 | 51.00093 | -1.33318 | 2564 ft | 208 kts | 359° |
| 2026-05-09 15:51 | 51.01561 | -1.33945 | 3022 ft | 232 kts | 333° |
| 2026-05-09 15:51 | 51.02827 | -1.35688 | 3603 ft | 253 kts | 308° |
| 2026-05-09 15:52 | 51.03718 | -1.41321 | 5032 ft | 280 kts | 264° |
| 2026-05-09 15:52 | 51.03004 | -1.44178 | 5936 ft | 283 kts | 230° |
| 2026-05-09 15:52 | 51.01450 | -1.46024 | 6871 ft | 281 kts | 198° |
| 2026-05-09 15:53 | 50.99530 | -1.46528 | 7719 ft | 282 kts | 177° |
| 2026-05-09 15:53 | 50.97625 | -1.45901 | 8596 ft | 281 kts | 153° |
| 2026-05-09 15:53 | 50.96086 | -1.44029 | 9462 ft | 282 kts | 127° |
| 2026-05-09 15:53 | 50.95239 | -1.41220 | 10228 ft | 287 kts | 104° |
| 2026-05-09 15:54 | 50.94780 | -1.38154 | 11082 ft | 282 kts | 103° |
| 2026-05-09 15:54 | 50.94362 | -1.35189 | 12404 ft | 265 kts | 103° |
| 2026-05-09 15:54 | 50.93968 | -1.32384 | 13240 ft | 266 kts | 104° |
| 2026-05-09 15:54 | 50.93553 | -1.29472 | 13971 ft | 269 kts | 104° |
| 2026-05-09 15:55 | 50.93139 | -1.26604 | 14610 ft | 271 kts | 104° |
| 2026-05-09 15:55 | 50.92714 | -1.23683 | 15284 ft | 273 kts | 105° |
| 2026-05-09 15:55 | 50.92275 | -1.20697 | 15706 ft | 287 kts | 105° |
| 2026-05-09 15:55 | 50.91795 | -1.17491 | 15865 ft | 310 kts | 106° |
| 2026-05-09 15:56 | 50.90906 | -1.14281 | 15991 ft | 328 kts | 128° |
| 2026-05-09 15:56 | 50.89284 | -1.11609 | 16130 ft | 346 kts | 139° |
| 2026-05-09 15:56 | 50.87454 | -1.08977 | 16396 ft | 361 kts | 140° |
| 2026-05-09 15:56 | 50.85571 | -1.06293 | 16978 ft | 366 kts | 140° |
| 2026-05-09 15:57 | 50.83670 | -1.03589 | 17633 ft | 369 kts | 140° |
| 2026-05-09 15:57 | 50.81752 | -1.00849 | 18270 ft | 373 kts | 140° |
| 2026-05-09 15:57 | 50.79823 | -0.98081 | 18830 ft | 376 kts | 140° |
| 2026-05-09 15:57 | 50.77875 | -0.95286 | 19384 ft | 379 kts | 140° |
| 2026-05-09 15:58 | 50.75915 | -0.92471 | 19936 ft | 383 kts | 140° |
| 2026-05-09 15:58 | 50.73934 | -0.89637 | 20493 ft | 386 kts | 140° |
| 2026-05-09 15:58 | 50.71939 | -0.86786 | 21048 ft | 389 kts | 140° |
| 2026-05-09 15:58 | 50.69925 | -0.83916 | 21601 ft | 392 kts | 140° |
| 2026-05-09 15:59 | 50.67889 | -0.81017 | 22135 ft | 395 kts | 140° |
| 2026-05-09 15:59 | 50.65842 | -0.78106 | 22675 ft | 399 kts | 140° |
| 2026-05-09 15:59 | 50.63772 | -0.75167 | 23208 ft | 401 kts | 140° |
| 2026-05-09 15:59 | 50.61697 | -0.72230 | 23745 ft | 403 kts | 140° |
| 2026-05-09 16:00 | 50.59603 | -0.69267 | 24179 ft | 405 kts | 140° |
| 2026-05-09 16:00 | 50.58212 | -0.67297 | 24465 ft | 406 kts | 140° |
| 2026-05-09 16:00 | 50.55422 | -0.63346 | 25020 ft | 409 kts | 141° |
| 2026-05-09 16:00 | 50.53303 | -0.60348 | 25435 ft | 411 kts | 141° |
| 2026-05-09 16:01 | 50.51167 | -0.57330 | 25823 ft | 413 kts | 141° |
| 2026-05-09 16:01 | 50.49021 | -0.54308 | 26211 ft | 415 kts | 141° |
| 2026-05-09 16:01 | 50.46866 | -0.51280 | 26593 ft | 417 kts | 141° |
| 2026-05-09 16:01 | 50.44697 | -0.48234 | 26940 ft | 419 kts | 141° |
| 2026-05-09 16:02 | 50.42527 | -0.45187 | 27024 ft | 414 kts | 141° |
| 2026-05-09 16:02 | 50.38310 | -0.39267 | 27032 ft | 404 kts | 141° |
| 2026-05-09 16:02 | 50.36221 | -0.36342 | 27030 ft | 403 kts | 141° |
| 2026-05-09 16:03 | 50.34131 | -0.33424 | 27030 ft | 403 kts | 141° |
| 2026-05-09 16:03 | 50.32035 | -0.30509 | 27027 ft | 403 kts | 141° |
| 2026-05-09 16:03 | 50.29941 | -0.27602 | 27027 ft | 403 kts | 142° |
| 2026-05-09 16:03 | 50.27843 | -0.24690 | 27027 ft | 403 kts | 141° |
| 2026-05-09 16:04 | 50.25752 | -0.21784 | 27027 ft | 403 kts | 141° |
| 2026-05-09 16:04 | 50.23655 | -0.18873 | 27022 ft | 403 kts | 141° |
| 2026-05-09 16:04 | 50.21557 | -0.15968 | 27022 ft | 402 kts | 142° |
| 2026-05-09 16:04 | 50.19463 | -0.13072 | 27022 ft | 402 kts | 141° |
| 2026-05-09 16:05 | 50.17367 | -0.10172 | 27013 ft | 403 kts | 142° |
| 2026-05-09 16:05 | 50.15269 | -0.07275 | 27013 ft | 403 kts | 142° |
| 2026-05-09 16:05 | 50.13173 | -0.04377 | 27008 ft | 403 kts | 142° |
| 2026-05-09 16:05 | 50.10969 | -0.01726 | 27006 ft | 398 kts | 152° |
| 2026-05-09 16:06 | 50.08537 | 0.00280 | 26995 ft | 393 kts | 162° |
| 2026-05-09 16:06 | 50.05957 | 0.01607 | 26994 ft | 389 kts | 170° |
| 2026-05-09 16:06 | 50.03332 | 0.02637 | 26990 ft | 389 kts | 170° |
| 2026-05-09 16:06 | 50.00701 | 0.03667 | 26991 ft | 390 kts | 170° |
| 2026-05-09 16:07 | 49.98066 | 0.04697 | 26991 ft | 390 kts | 170° |
| 2026-05-09 16:07 | 49.95440 | 0.05728 | 26978 ft | 390 kts | 171° |
| 2026-05-09 16:07 | 49.92812 | 0.06762 | 26989 ft | 389 kts | 171° |
| 2026-05-09 16:07 | 49.90224 | 0.07775 | 27000 ft | 389 kts | 171° |
| 2026-05-09 16:08 | 49.87604 | 0.08797 | 27002 ft | 388 kts | 171° |
| 2026-05-09 16:08 | 49.84982 | 0.09818 | 27002 ft | 388 kts | 171° |
| 2026-05-09 16:08 | 49.82370 | 0.10839 | 26999 ft | 388 kts | 171° |
| 2026-05-09 16:08 | 49.79756 | 0.11867 | 26996 ft | 387 kts | 171° |
| 2026-05-09 16:09 | 49.77140 | 0.12891 | 26988 ft | 387 kts | 171° |
| 2026-05-09 16:09 | 49.74531 | 0.13912 | 26974 ft | 387 kts | 172° |
| 2026-05-09 16:09 | 49.71928 | 0.14933 | 26977 ft | 386 kts | 172° |
| 2026-05-09 16:09 | 49.69316 | 0.15955 | 26977 ft | 386 kts | 172° |
| 2026-05-09 16:10 | 49.66712 | 0.16971 | 26979 ft | 386 kts | 172° |
| 2026-05-09 16:10 | 49.64112 | 0.18006 | 26976 ft | 385 kts | 171° |
| 2026-05-09 16:10 | 49.61512 | 0.19055 | 26974 ft | 385 kts | 171° |
| 2026-05-09 16:10 | 49.58917 | 0.20107 | 26972 ft | 385 kts | 171° |
| 2026-05-09 16:11 | 49.56359 | 0.21143 | 26971 ft | 385 kts | 171° |
| 2026-05-09 16:11 | 49.53765 | 0.22190 | 26969 ft | 385 kts | 171° |
| 2026-05-09 16:11 | 49.51173 | 0.23234 | 26954 ft | 385 kts | 171° |
| 2026-05-09 16:11 | 49.48592 | 0.24272 | 26968 ft | 384 kts | 171° |
| 2026-05-09 16:12 | 49.46005 | 0.25310 | 26972 ft | 383 kts | 171° |
| 2026-05-09 16:12 | 49.43430 | 0.26343 | 26974 ft | 383 kts | 172° |
| 2026-05-09 16:12 | 49.40852 | 0.27373 | 26974 ft | 382 kts | 172° |
| 2026-05-09 16:12 | 49.38272 | 0.28403 | 26974 ft | 382 kts | 172° |
| 2026-05-09 16:13 | 49.35701 | 0.29431 | 26973 ft | 382 kts | 172° |
| 2026-05-09 16:13 | 49.33126 | 0.30457 | 26972 ft | 382 kts | 172° |
| 2026-05-09 16:13 | 49.30556 | 0.31479 | 26972 ft | 382 kts | 171° |
| 2026-05-09 16:13 | 49.27993 | 0.32536 | 26966 ft | 382 kts | 171° |
| 2026-05-09 16:14 | 49.25436 | 0.33631 | 26965 ft | 382 kts | 170° |
| 2026-05-09 16:14 | 49.22883 | 0.34748 | 26966 ft | 381 kts | 170° |
| 2026-05-09 16:14 | 49.20340 | 0.35865 | 26964 ft | 381 kts | 170° |
| 2026-05-09 16:14 | 49.17783 | 0.36983 | 26963 ft | 381 kts | 170° |
| 2026-05-09 16:15 | 49.15236 | 0.38088 | 26960 ft | 381 kts | 170° |
| 2026-05-09 16:15 | 49.12684 | 0.39184 | 26959 ft | 381 kts | 170° |
| 2026-05-09 16:15 | 49.10132 | 0.40278 | 26958 ft | 380 kts | 171° |
| 2026-05-09 16:15 | 49.07577 | 0.41356 | 26937 ft | 380 kts | 170° |
| 2026-05-09 16:16 | 49.05027 | 0.42409 | 26937 ft | 380 kts | 170° |
| 2026-05-09 16:16 | 49.02471 | 0.43454 | 26829 ft | 379 kts | 171° |
| 2026-05-09 16:16 | 48.99938 | 0.44487 | 26556 ft | 376 kts | 171° |
| 2026-05-09 16:16 | 48.97415 | 0.45511 | 26312 ft | 375 kts | 170° |
| 2026-05-09 16:17 | 48.94894 | 0.46537 | 26060 ft | 374 kts | 170° |
| 2026-05-09 16:17 | 48.92382 | 0.47564 | 25811 ft | 373 kts | 170° |
| 2026-05-09 16:17 | 48.89893 | 0.48589 | 25527 ft | 367 kts | 170° |
| 2026-05-09 16:17 | 48.87473 | 0.49588 | 25115 ft | 363 kts | 170° |
| 2026-05-09 16:18 | 48.85041 | 0.50588 | 24681 ft | 360 kts | 169° |
| 2026-05-09 16:18 | 48.82635 | 0.51572 | 24257 ft | 356 kts | 169° |
| 2026-05-09 16:18 | 48.80254 | 0.52541 | 23833 ft | 353 kts | 169° |
| 2026-05-09 16:18 | 48.77885 | 0.53503 | 23343 ft | 351 kts | 169° |
| 2026-05-09 16:19 | 48.75533 | 0.54454 | 22872 ft | 348 kts | 169° |
| 2026-05-09 16:19 | 48.73203 | 0.55391 | 22416 ft | 345 kts | 169° |
| 2026-05-09 16:19 | 48.70898 | 0.56317 | 21966 ft | 341 kts | 169° |
| 2026-05-09 16:19 | 48.68609 | 0.57234 | 21520 ft | 339 kts | 169° |
| 2026-05-09 16:20 | 48.66337 | 0.58144 | 21086 ft | 337 kts | 169° |
| 2026-05-09 16:20 | 48.64082 | 0.59045 | 20629 ft | 335 kts | 169° |
| 2026-05-09 16:20 | 48.61834 | 0.59943 | 20180 ft | 333 kts | 168° |
| 2026-05-09 16:20 | 48.59593 | 0.60838 | 19740 ft | 332 kts | 168° |
| 2026-05-09 16:21 | 48.57360 | 0.61729 | 19293 ft | 332 kts | 168° |
| 2026-05-09 16:21 | 48.55128 | 0.62618 | 18845 ft | 331 kts | 168° |
| 2026-05-09 16:21 | 48.52899 | 0.63505 | 18397 ft | 331 kts | 168° |
| 2026-05-09 16:21 | 48.50674 | 0.64393 | 17926 ft | 331 kts | 168° |
| 2026-05-09 16:22 | 48.48453 | 0.65280 | 17477 ft | 329 kts | 168° |
| 2026-05-09 16:22 | 48.46242 | 0.66163 | 17030 ft | 327 kts | 167° |
| 2026-05-09 16:22 | 48.44047 | 0.67039 | 16600 ft | 326 kts | 167° |
| 2026-05-09 16:22 | 48.41853 | 0.67914 | 16169 ft | 324 kts | 167° |
| 2026-05-09 16:23 | 48.39676 | 0.68777 | 15747 ft | 323 kts | 167° |
| 2026-05-09 16:23 | 48.37503 | 0.69633 | 15319 ft | 322 kts | 167° |
| 2026-05-09 16:23 | 48.35336 | 0.70483 | 14887 ft | 322 kts | 167° |
| 2026-05-09 16:23 | 48.33197 | 0.71324 | 14475 ft | 321 kts | 167° |
| 2026-05-09 16:24 | 48.31035 | 0.72179 | 14052 ft | 321 kts | 167° |
| 2026-05-09 16:24 | 48.28886 | 0.73045 | 13604 ft | 320 kts | 164° |
| 2026-05-09 16:24 | 48.26856 | 0.74438 | 13147 ft | 322 kts | 149° |
| 2026-05-09 16:24 | 48.25148 | 0.76592 | 12924 ft | 322 kts | 134° |
| 2026-05-09 16:25 | 48.23864 | 0.79348 | 12939 ft | 326 kts | 119° |
| 2026-05-09 16:25 | 48.23217 | 0.81434 | 12942 ft | 327 kts | 116° |
| 2026-05-09 16:25 | 48.21980 | 0.85560 | 12926 ft | 327 kts | 116° |
| 2026-05-09 16:25 | 48.21150 | 0.88747 | 12759 ft | 330 kts | 106° |
| 2026-05-09 16:26 | 48.20674 | 0.92087 | 12502 ft | 328 kts | 104° |
| 2026-05-09 16:26 | 48.20213 | 0.95428 | 12240 ft | 327 kts | 104° |
| 2026-05-09 16:26 | 48.19753 | 0.98762 | 11989 ft | 325 kts | 104° |
| 2026-05-09 16:26 | 48.19297 | 1.02075 | 11736 ft | 324 kts | 104° |
| 2026-05-09 16:27 | 48.18841 | 1.05381 | 11481 ft | 322 kts | 104° |
| 2026-05-09 16:27 | 48.18386 | 1.08659 | 11232 ft | 321 kts | 104° |
| 2026-05-09 16:27 | 48.17930 | 1.11928 | 10983 ft | 319 kts | 104° |
| 2026-05-09 16:27 | 48.17477 | 1.15175 | 10738 ft | 318 kts | 103° |
| 2026-05-09 16:28 | 48.17031 | 1.18364 | 10501 ft | 316 kts | 104° |
| 2026-05-09 16:28 | 48.16579 | 1.21587 | 10255 ft | 315 kts | 103° |
| 2026-05-09 16:28 | 48.16130 | 1.24778 | 10018 ft | 313 kts | 103° |
| 2026-05-09 16:28 | 48.15689 | 1.27930 | 9895 ft | 301 kts | 103° |
| 2026-05-09 16:29 | 48.15403 | 1.29969 | 9923 ft | 293 kts | 103° |
| 2026-05-09 16:29 | 48.14986 | 1.32939 | 9931 ft | 290 kts | 104° |
| 2026-05-09 16:29 | 48.14575 | 1.35847 | 9931 ft | 289 kts | 104° |
| 2026-05-09 16:29 | 48.14150 | 1.38828 | 9931 ft | 289 kts | 103° |
| 2026-05-09 16:30 | 48.13890 | 1.41768 | 9932 ft | 291 kts | 90° |
| 2026-05-09 16:30 | 48.14231 | 1.44755 | 9930 ft | 293 kts | 71° |
| 2026-05-09 16:30 | 48.15190 | 1.47454 | 9929 ft | 296 kts | 53° |
| 2026-05-09 16:30 | 48.16680 | 1.49578 | 9931 ft | 298 kts | 35° |
| 2026-05-09 16:31 | 48.18404 | 1.51308 | 9928 ft | 298 kts | 35° |
| 2026-05-09 16:31 | 48.20127 | 1.53046 | 9925 ft | 299 kts | 34° |
| 2026-05-09 16:31 | 48.21843 | 1.54786 | 9934 ft | 298 kts | 35° |
| 2026-05-09 16:31 | 48.23561 | 1.56534 | 9936 ft | 298 kts | 36° |
| 2026-05-09 16:32 | 48.25278 | 1.58280 | 9933 ft | 298 kts | 35° |
| 2026-05-09 16:32 | 48.26995 | 1.60025 | 9933 ft | 298 kts | 35° |
| 2026-05-09 16:32 | 48.28715 | 1.61772 | 9933 ft | 299 kts | 35° |
| 2026-05-09 16:32 | 48.30435 | 1.63520 | 9933 ft | 298 kts | 35° |
| 2026-05-09 16:33 | 48.32150 | 1.65270 | 9936 ft | 298 kts | 36° |
| 2026-05-09 16:33 | 48.33865 | 1.67029 | 9942 ft | 298 kts | 36° |
| 2026-05-09 16:33 | 48.35580 | 1.68787 | 9935 ft | 298 kts | 36° |
| 2026-05-09 16:33 | 48.37294 | 1.70539 | 9942 ft | 298 kts | 36° |
| 2026-05-09 16:34 | 48.39026 | 1.72307 | 9505 ft | 305 kts | 35° |
| 2026-05-09 16:34 | 48.40766 | 1.74084 | 9208 ft | 299 kts | 35° |
| 2026-05-09 16:34 | 48.42480 | 1.75834 | 8795 ft | 297 kts | 35° |
| 2026-05-09 16:34 | 48.44185 | 1.77578 | 8396 ft | 294 kts | 35° |
| 2026-05-09 16:35 | 48.45840 | 1.79272 | 7752 ft | 290 kts | 36° |
| 2026-05-09 16:35 | 48.47498 | 1.80974 | 7101 ft | 286 kts | 35° |
| 2026-05-09 16:35 | 48.49138 | 1.82658 | 6702 ft | 283 kts | 35° |
| 2026-05-09 16:35 | 48.50761 | 1.84321 | 6329 ft | 281 kts | 36° |
| 2026-05-09 16:36 | 48.52375 | 1.85981 | 5912 ft | 279 kts | 35° |
| 2026-05-09 16:36 | 48.56946 | 1.90741 | 5357 ft | 246 kts | 42° |
| 2026-05-09 16:37 | 48.58043 | 1.92613 | 5267 ft | 235 kts | 60° |
| 2026-05-09 16:37 | 48.58834 | 1.94748 | 5145 ft | 231 kts | 64° |
| 2026-05-09 16:37 | 48.59581 | 1.96890 | 5020 ft | 230 kts | 63° |
| 2026-05-09 16:37 | 48.60337 | 1.99015 | 4915 ft | 229 kts | 63° |
| 2026-05-09 16:38 | 48.61099 | 2.01138 | 4747 ft | 230 kts | 63° |
| 2026-05-09 16:38 | 48.61855 | 2.03245 | 4467 ft | 227 kts | 63° |
| 2026-05-09 16:38 | 48.62609 | 2.05350 | 4173 ft | 226 kts | 63° |
| 2026-05-09 16:38 | 48.63353 | 2.07426 | 3871 ft | 224 kts | 63° |
| 2026-05-09 16:39 | 48.64090 | 2.09486 | 3569 ft | 221 kts | 63° |
| 2026-05-09 16:39 | 48.64807 | 2.11493 | 3287 ft | 212 kts | 62° |
| 2026-05-09 16:39 | 48.65492 | 2.13407 | 3046 ft | 201 kts | 63° |
| 2026-05-09 16:39 | 48.66138 | 2.15218 | 2760 ft | 190 kts | 63° |
| 2026-05-09 16:40 | 48.66753 | 2.16944 | 2503 ft | 182 kts | 63° |
| 2026-05-09 16:40 | 48.67340 | 2.18589 | 2267 ft | 173 kts | 63° |
| 2026-05-09 16:42 | 48.70727 | 2.28119 | 895 ft | 134 kts | 63° |
| 2026-05-09 16:42 | 48.71161 | 2.29326 | 738 ft | 132 kts | 66° |
| 2026-05-09 16:42 | 48.71592 | 2.30561 | 550 ft | 134 kts | 65° |
| 2026-05-09 16:42 | 48.72031 | 2.31791 | 377 ft | 132 kts | 63° |
| 2026-05-09 16:43 | 48.72451 | 2.32981 | 304 ft | 116 kts | 62° |
| 2026-05-09 16:43 | 48.72753 | 2.33828 | 303 ft | 67 kts | 62° |
| 2026-05-09 16:43 | 48.72939 | 2.34355 | 301 ft | 51 kts | 62° |
| 2026-05-09 16:43 | 48.73011 | 2.34742 | 299 ft | 33 kts | 84° |
| 2026-05-09 16:44 | 48.73034 | 2.35006 | 300 ft | 19 kts | 82° |
| 2026-05-09 16:44 | 48.73030 | 2.35187 | 302 ft | 15 kts | 109° |
| 2026-05-09 16:44 | 48.72952 | 2.35295 | 304 ft | 16 kts | 149° |
| 2026-05-09 16:44 | 48.72897 | 2.35397 | 301 ft | 9 kts | 92° |
| 2026-05-09 16:45 | 48.72915 | 2.35499 | 304 ft | 6 kts | 54° |
| 2026-05-09 16:45 | 48.72917 | 2.35502 | 305 ft | 0 kts | 50° |
| 2026-05-09 16:45 | 48.72935 | 2.35550 | 301 ft | 12 kts | 89° |
| 2026-05-09 16:45 | 48.72902 | 2.35653 | 302 ft | 3 kts | 118° |
| 2026-05-09 16:46 | 48.72898 | 2.35664 | 301 ft | 1 kts | 118° |
| 2026-05-09 16:46 | 48.72896 | 2.35669 | 301 ft | 0 kts | 118° |
| 2026-05-09 16:46 | 48.72896 | 2.35670 | 301 ft | 0 kts | 118° |